Terminal Aerodrome Forecast
Issued by NWS Dallas/Fort Worth, TX

Home | Current Version | Previous Version | Text Only | Print | Product List | Glossary On
Versions: 1 2 3 4 5 6 7 8 9 10 11 12 13 14 15 16 17 18 19 20 21 22 23 24 25 26
000
FTUS44 KFWD 031120
TAFACT
TAF
KACT 031120Z 0312/0412 06009KT 4SM RA BR OVC007
      TEMPO 0312/0315 2SM RA BR OVC003
     FM031500 05011KT 5SM -RA VCTS BKN005 OVC045CB
     FM031900 04013KT 4SM -RA VCTS OVC006CB
     FM032300 03010KT 3SM -DZ BR OVC005
     FM040300 36008KT 2SM -DZ BR OVC003=

USA.gov is the U.S. government's official web portal to all federal, state and local government web resources and services.